Falkor — ZCYL5 — position and weather

sailwx.info

Track history (hours):
 
Tides and Currents Weather Stations Pressure Air Temp Water Temp Dewpoint Dewpoint Depression Visibility Wind Speed Wind Dir Waves Ship Positions

Oceanographic research ship Falkor (Cayman Islands)

Detailed information on ship capabilities available from University of Delaware's Ocean Information Center.

Last reported at 2018-Jun-17 12:56 UTC. Time now 2018-Jun-24 09:17 UTC.
Position N 32°30' W 117°26'.

Length 83 m; draft 5.6 m.

Type: Other ship. MMSI: 319005600.

Date/timePositionNaut miles runAvg speedWind from/ knotsBaromVisibWave heightAir tempDewpointWater temp
2018-Jun-17 12:56N 32°30' W 117°26'8 7.3
2018-Jun-17 11:54N 32°28' W 117°35'3 7.5
2018-Jun-17 11:30N 32°28' W 117°39'47 7.8
2018-Jun-17 05:28N 32°17' W 118°33'13 7.8
2018-Jun-17 03:51N 32°14' W 118°47'4 8.0
2018-Jun-17 03:21N 32°13' W 118°52'14 7.9
2018-Jun-17 01:33N 32°10' W 119°08'0 7.2
2018-Jun-17 01:29N 32°10' W 119°09'104 9.1
2018-Jun-16 14:05N 31°46' W 121°08'110.8
2018-Jun-16 14:00N 31°46' W 121°09'1910.3
2018-Jun-16 12:12N 31°42' W 121°30'  
Track history (hours):
 
Tides and Currents Weather Stations Pressure Air Temp Water Temp Dewpoint Dewpoint Depression Visibility Wind Speed Wind Dir Waves Ship Positions

Oceanographic research ship Falkor (Cayman Islands)

Detailed information on ship capabilities available from University of Delaware's Ocean Information Center.

Last reported at 2018-Jun-17 12:56 UTC. Time now 2018-Jun-24 09:17 UTC.
Position N 32°30' W 117°26'.

Length 83 m; draft 5.6 m.

Type: Other ship. MMSI: 319005600.

Date/timePositionNaut miles runAvg speedWind from/ knotsBaromVisibWave heightAir tempDewpointWater temp
2018-Jun-17 12:56N 32°30' W 117°26'8 7.3
2018-Jun-17 11:54N 32°28' W 117°35'3 7.5
2018-Jun-17 11:30N 32°28' W 117°39'47 7.8
2018-Jun-17 05:28N 32°17' W 118°33'13 7.8
2018-Jun-17 03:51N 32°14' W 118°47'4 8.0
2018-Jun-17 03:21N 32°13' W 118°52'14 7.9
2018-Jun-17 01:33N 32°10' W 119°08'0 7.2
2018-Jun-17 01:29N 32°10' W 119°09'104 9.1
2018-Jun-16 14:05N 31°46' W 121°08'110.8
2018-Jun-16 14:00N 31°46' W 121°09'1910.3
2018-Jun-16 12:12N 31°42' W 121°30'  

Dump ship's entire track history